Terminal Aerodrome Forecast
Issued by NWS

Home | Current Version | Previous Version | Text Only | Print | Product List | Glossary On
Versions: 1 2 3 4 5 6 7 8 9 10 11 12 13 14 15 16 17
000
FTUS42 KGSP 270525
TAFAND
TAF
KAND 270525Z 2706/2806 23008KT 6SM -SHRA OVC050
     FM270700 26007KT 5SM -SHRA BR OVC020
     FM271100 30006KT P6SM OVC020
     FM271700 34009G15KT P6SM BKN050
     FM272100 31007KT P6SM BKN050=

USA.gov is the U.S. government's official web portal to all federal, state and local government web resources and services.